createdAt,value
2022-09-02T00:00:09.294Z,14.16
2022-09-02T00:01:09.306Z,14.13
2022-09-02T00:02:09.365Z,14.13
2022-09-02T00:03:09.439Z,14.12
2022-09-02T00:04:09.295Z,14.12
2022-09-02T00:05:09.235Z,14.13
2022-09-02T00:06:09.284Z,14.16
2022-09-02T00:07:09.215Z,14.19
2022-09-02T00:08:09.197Z,14.21
2022-09-02T00:09:09.193Z,14.20
2022-09-02T00:10:09.234Z,14.21
2022-09-02T00:11:09.166Z,14.20
2022-09-02T00:12:09.172Z,14.21
2022-09-02T00:13:09.205Z,14.25
2022-09-02T00:14:09.138Z,14.28
2022-09-02T00:15:09.128Z,14.24
2022-09-02T00:16:09.174Z,14.21
2022-09-02T00:17:09.126Z,14.21
2022-09-02T00:18:12.566Z,14.24
2022-09-02T00:19:10.104Z,14.27
2022-09-02T00:20:09.099Z,14.28
2022-09-02T00:21:09.094Z,14.27
2022-09-02T00:22:09.069Z,14.20
2022-09-02T00:23:09.042Z,14.19
2022-09-02T00:24:09.028Z,14.24
2022-09-02T00:25:09.051Z,14.25
2022-09-02T00:26:09.038Z,14.28
2022-09-02T00:27:09.011Z,14.28
2022-09-02T00:28:08.976Z,14.25
2022-09-02T00:29:08.972Z,14.27
2022-09-02T00:30:08.974Z,14.28
2022-09-02T00:31:08.942Z,14.31
2022-09-02T00:32:08.991Z,14.32
2022-09-02T00:33:08.975Z,14.35
2022-09-02T00:34:08.931Z,14.37
2022-09-02T00:35:08.901Z,14.39
2022-09-02T00:36:08.882Z,14.39
2022-09-02T00:37:08.872Z,14.39
2022-09-02T00:38:08.863Z,14.38
2022-09-02T00:39:08.905Z,14.35
2022-09-02T00:40:08.866Z,14.29
2022-09-02T00:41:08.837Z,14.29
2022-09-02T00:42:08.823Z,14.28
2022-09-02T00:43:08.837Z,14.31
2022-09-02T00:44:08.792Z,14.32
2022-09-02T00:45:08.831Z,14.35
2022-09-02T00:46:08.802Z,14.37
2022-09-02T00:47:08.778Z,14.37
2022-09-02T00:48:08.776Z,14.39
2022-09-02T00:49:08.735Z,14.42
2022-09-02T00:50:08.735Z,14.42
2022-09-02T00:51:08.744Z,14.39
2022-09-02T00:52:08.775Z,14.35
2022-09-02T00:53:08.692Z,14.34
2022-09-02T00:54:08.694Z,14.31
2022-09-02T00:55:08.674Z,14.27
2022-09-02T00:56:08.655Z,14.24
2022-09-02T00:57:08.675Z,14.21
2022-09-02T00:58:09.530Z,14.21
2022-09-02T00:59:08.656Z,14.17
2022-09-02T01:00:08.607Z,14.14
2022-09-02T01:01:08.645Z,14.13
2022-09-02T01:02:08.724Z,14.12
2022-09-02T01:03:08.655Z,14.14
2022-09-02T01:04:08.557Z,14.16
2022-09-02T01:05:08.585Z,14.19
2022-09-02T01:06:08.589Z,14.24
2022-09-02T01:07:08.538Z,14.21
2022-09-02T01:08:08.541Z,14.19
2022-09-02T01:09:08.547Z,14.19
2022-09-02T01:10:08.527Z,14.17
2022-09-02T01:11:08.517Z,14.16
2022-09-02T01:12:08.496Z,14.16
2022-09-02T01:13:08.551Z,14.17
2022-09-02T01:14:08.469Z,14.20
2022-09-02T01:15:08.481Z,14.17
2022-09-02T01:16:08.524Z,14.19
2022-09-02T01:17:08.428Z,14.17
2022-09-02T01:18:08.429Z,14.16
2022-09-02T01:19:08.399Z,14.13
2022-09-02T01:20:08.396Z,14.13
2022-09-02T01:21:08.419Z,14.12
2022-09-02T01:22:08.381Z,14.10
2022-09-02T01:23:08.350Z,14.12
2022-09-02T01:24:08.341Z,14.10
2022-09-02T01:25:08.339Z,14.12
2022-09-02T01:26:08.351Z,14.14
2022-09-02T01:27:08.311Z,14.12
2022-09-02T01:28:08.294Z,14.10
2022-09-02T01:29:08.330Z,14.09
2022-09-02T01:30:08.305Z,14.07
2022-09-02T01:31:08.344Z,14.06
2022-09-02T01:32:08.333Z,14.06
2022-09-02T01:33:08.314Z,14.01
2022-09-02T01:34:08.286Z,14.02
2022-09-02T01:35:08.251Z,14.07
2022-09-02T01:36:08.305Z,14.09
2022-09-02T01:37:08.292Z,14.12
2022-09-02T01:38:08.270Z,14.14
2022-09-02T01:39:08.244Z,14.14
2022-09-02T01:40:08.290Z,14.14
2022-09-02T01:41:08.254Z,14.16
2022-09-02T01:42:08.193Z,14.16
2022-09-02T01:43:08.236Z,14.14
2022-09-02T01:44:08.241Z,14.17
2022-09-02T01:45:08.240Z,14.19
2022-09-02T01:46:08.124Z,14.17
2022-09-02T01:47:08.084Z,14.16
2022-09-02T01:48:08.095Z,14.17
2022-09-02T01:49:08.060Z,14.17
2022-09-02T01:50:08.105Z,14.16
2022-09-02T01:51:08.048Z,14.16
2022-09-02T01:52:08.045Z,14.14
2022-09-02T01:53:08.030Z,14.17
2022-09-02T01:54:08.015Z,14.19
2022-09-02T01:55:07.994Z,14.20
2022-09-02T01:56:08.104Z,14.21
2022-09-02T01:57:08.047Z,14.21
2022-09-02T01:58:08.084Z,14.27
2022-09-02T01:59:08.088Z,14.31
2022-09-02T02:00:08.046Z,14.32
2022-09-02T02:01:08.068Z,14.38
2022-09-02T02:02:08.085Z,14.39
2022-09-02T02:03:08.056Z,14.42
2022-09-02T02:04:12.697Z,14.43
2022-09-02T02:05:09.074Z,14.44
2022-09-02T02:06:07.910Z,14.46
2022-09-02T02:07:07.948Z,14.47
2022-09-02T02:08:07.868Z,14.47
2022-09-02T02:09:07.949Z,14.47
2022-09-02T02:10:07.881Z,14.47
2022-09-02T02:11:07.879Z,14.49
2022-09-02T02:12:07.894Z,14.49
2022-09-02T02:13:07.916Z,14.49
2022-09-02T02:14:07.889Z,14.49
2022-09-02T02:15:07.801Z,14.49
2022-09-02T02:16:07.883Z,14.46
2022-09-02T02:17:08.008Z,14.44
2022-09-02T02:18:07.848Z,14.44
2022-09-02T02:19:07.816Z,14.43
2022-09-02T02:20:07.875Z,14.43
2022-09-02T02:21:07.858Z,14.42
2022-09-02T02:22:07.774Z,14.38
2022-09-02T02:23:07.796Z,14.37
2022-09-02T02:24:07.711Z,14.37
2022-09-02T02:25:07.810Z,14.42
2022-09-02T02:26:07.664Z,14.43
2022-09-02T02:27:07.672Z,14.44
2022-09-02T02:28:07.685Z,14.46
2022-09-02T02:29:07.642Z,14.49
2022-09-02T02:30:07.667Z,14.49
2022-09-02T02:31:07.726Z,14.50
2022-09-02T02:32:07.696Z,14.53
2022-09-02T02:33:07.675Z,14.52
2022-09-02T02:34:07.739Z,14.52
2022-09-02T02:35:07.715Z,14.52
2022-09-02T02:36:07.636Z,14.52
2022-09-02T02:37:07.640Z,14.49
2022-09-02T02:38:07.668Z,14.44
2022-09-02T02:39:07.637Z,14.43
2022-09-02T02:40:07.729Z,14.42
2022-09-02T02:41:07.661Z,14.42
2022-09-02T02:42:07.655Z,14.42
2022-09-02T02:43:07.528Z,14.44
2022-09-02T02:44:07.489Z,14.43
2022-09-02T02:45:07.570Z,14.39
2022-09-02T02:46:07.584Z,14.35
2022-09-02T02:47:07.504Z,14.34
2022-09-02T02:48:07.484Z,14.31
2022-09-02T02:49:07.518Z,14.32
2022-09-02T02:50:07.462Z,14.34
2022-09-02T02:51:07.519Z,14.35
2022-09-02T02:52:07.478Z,14.39
2022-09-02T02:53:07.568Z,14.42
2022-09-02T02:54:07.447Z,14.43
2022-09-02T02:55:07.439Z,14.44
2022-09-02T02:56:07.379Z,14.44
2022-09-02T02:57:07.482Z,14.44
2022-09-02T02:58:07.365Z,14.44
2022-09-02T02:59:07.351Z,14.43
2022-09-02T03:00:07.361Z,14.37
2022-09-02T03:01:07.352Z,14.35
2022-09-02T03:02:07.385Z,14.32
2022-09-02T03:03:07.412Z,14.34
2022-09-02T03:04:07.342Z,14.35
2022-09-02T03:05:07.327Z,14.34
2022-09-02T03:06:07.333Z,14.31
2022-09-02T03:07:07.327Z,14.32
2022-09-02T03:08:07.359Z,14.28
2022-09-02T03:09:07.341Z,14.29
2022-09-02T03:10:07.314Z,14.31
2022-09-02T03:11:08.076Z,14.32
2022-09-02T03:12:07.226Z,14.32
2022-09-02T03:13:07.263Z,14.31
2022-09-02T03:14:07.413Z,14.31
2022-09-02T03:15:07.228Z,14.29
2022-09-02T03:16:07.292Z,14.29
2022-09-02T03:17:07.132Z,14.28
2022-09-02T03:18:07.096Z,14.25
2022-09-02T03:19:07.225Z,14.20
2022-09-02T03:20:07.117Z,14.19
2022-09-02T03:21:07.128Z,14.20
2022-09-02T03:22:07.072Z,14.17
2022-09-02T03:23:07.100Z,14.13
2022-09-02T03:24:07.052Z,14.13
2022-09-02T03:25:07.102Z,14.10
2022-09-02T03:26:07.173Z,14.04
2022-09-02T03:27:07.003Z,14.02
2022-09-02T03:28:07.021Z,13.99
2022-09-02T03:29:07.085Z,13.96
2022-09-02T03:30:07.059Z,13.95
2022-09-02T03:31:07.110Z,13.94
2022-09-02T03:32:06.985Z,13.92
2022-09-02T03:33:07.024Z,13.91
2022-09-02T03:34:06.965Z,13.89
2022-09-02T03:35:06.936Z,13.89
2022-09-02T03:36:07.002Z,13.88
2022-09-02T03:37:07.005Z,13.84
2022-09-02T03:38:06.895Z,13.83
2022-09-02T03:39:06.937Z,13.81
2022-09-02T03:40:07.021Z,13.84
2022-09-02T03:41:06.955Z,13.88
2022-09-02T03:42:06.955Z,13.88
2022-09-02T03:43:07.919Z,13.88
2022-09-02T03:44:06.871Z,13.84
2022-09-02T03:45:06.827Z,13.84
2022-09-02T03:46:06.906Z,13.84
2022-09-02T03:47:06.966Z,13.81
2022-09-02T03:48:06.824Z,13.80
2022-09-02T03:49:06.891Z,13.83
2022-09-02T03:50:06.830Z,13.83
2022-09-02T03:51:06.747Z,13.88
2022-09-02T03:52:06.908Z,13.89
2022-09-02T03:53:06.894Z,13.91
2022-09-02T03:54:06.989Z,13.91
2022-09-02T03:55:06.795Z,13.89
2022-09-02T03:56:06.833Z,13.87
2022-09-02T03:57:06.849Z,13.87
2022-09-02T03:58:08.583Z,13.84
2022-09-02T03:59:06.890Z,13.87
2022-09-02T04:00:06.749Z,13.84
2022-09-02T04:01:06.765Z,13.84
2022-09-02T04:02:06.837Z,13.81
2022-09-02T04:03:06.803Z,13.83
2022-09-02T04:04:06.669Z,13.83
2022-09-02T04:05:06.766Z,13.83
2022-09-02T04:06:07.718Z,13.81
2022-09-02T04:07:06.628Z,13.79
2022-09-02T04:08:06.593Z,13.76
2022-09-02T04:09:06.621Z,13.74
2022-09-02T04:10:06.666Z,13.69
2022-09-02T04:11:06.632Z,13.71
2022-09-02T04:12:06.537Z,13.71
2022-09-02T04:13:06.513Z,13.74
2022-09-02T04:14:06.576Z,13.74
2022-09-02T04:15:06.688Z,13.73
2022-09-02T04:16:06.776Z,13.74
2022-09-02T04:17:06.504Z,13.70
2022-09-02T04:18:06.405Z,13.67
2022-09-02T04:19:06.402Z,13.67
2022-09-02T04:20:06.394Z,13.67
2022-09-02T04:21:06.403Z,13.65
2022-09-02T04:22:06.421Z,13.61
2022-09-02T04:23:06.389Z,13.56
2022-09-02T04:24:06.363Z,13.54
2022-09-02T04:25:06.351Z,13.52
2022-09-02T04:26:07.008Z,13.47
2022-09-02T04:27:06.401Z,13.47
2022-09-02T04:28:06.307Z,13.46
2022-09-02T04:29:06.810Z,13.43
2022-09-02T04:30:06.284Z,13.37
2022-09-02T04:31:06.364Z,13.36
2022-09-02T04:32:06.259Z,13.36
2022-09-02T04:33:06.301Z,13.36
2022-09-02T04:34:06.217Z,13.33
2022-09-02T04:35:06.223Z,13.33
2022-09-02T04:36:06.212Z,13.37
2022-09-02T04:37:06.203Z,13.41
2022-09-02T04:38:06.196Z,13.38
2022-09-02T04:39:06.196Z,13.38
2022-09-02T04:40:06.210Z,13.38
2022-09-02T04:41:06.159Z,13.40
2022-09-02T04:42:06.148Z,13.38
2022-09-02T04:43:06.149Z,13.37
2022-09-02T04:44:06.132Z,13.37
2022-09-02T04:45:06.118Z,13.38
2022-09-02T04:46:06.202Z,13.40
2022-09-02T04:47:06.819Z,13.46
2022-09-02T04:48:06.089Z,13.49
2022-09-02T04:49:06.091Z,13.52
2022-09-02T04:50:06.063Z,13.52
2022-09-02T04:51:06.056Z,13.52
2022-09-02T04:52:06.019Z,13.54
2022-09-02T04:53:06.045Z,13.55
2022-09-02T04:54:05.999Z,13.55
2022-09-02T04:55:05.994Z,13.61
2022-09-02T04:56:06.030Z,13.62
2022-09-02T04:57:05.980Z,13.65
2022-09-02T04:58:05.978Z,13.71
2022-09-02T04:59:05.941Z,13.74
2022-09-02T05:00:05.941Z,13.76
2022-09-02T05:01:06.000Z,13.79
2022-09-02T05:02:06.094Z,13.80
2022-09-02T05:03:05.901Z,13.83
2022-09-02T05:04:05.932Z,13.84
2022-09-02T05:05:05.873Z,13.84
2022-09-02T05:06:05.866Z,13.88
2022-09-02T05:07:05.842Z,13.91
2022-09-02T05:08:05.951Z,13.94
2022-09-02T05:09:05.835Z,13.98
2022-09-02T05:10:05.846Z,13.99
2022-09-02T05:11:05.817Z,14.01
2022-09-02T05:12:05.793Z,14.04
2022-09-02T05:13:05.796Z,14.04
2022-09-02T05:14:05.783Z,14.06
2022-09-02T05:15:05.766Z,14.10
2022-09-02T05:16:05.784Z,14.10
2022-09-02T05:17:07.842Z,14.14
2022-09-02T05:18:05.734Z,14.17
2022-09-02T05:19:05.742Z,14.20
2022-09-02T05:20:05.734Z,14.21
2022-09-02T05:21:05.726Z,14.28
2022-09-02T05:22:05.685Z,14.29
2022-09-02T05:23:05.710Z,14.32
2022-09-02T05:24:05.655Z,14.38
2022-09-02T05:25:05.685Z,14.42
2022-09-02T05:26:05.647Z,14.46
2022-09-02T05:27:05.657Z,14.46
2022-09-02T05:28:05.638Z,14.46
2022-09-02T05:29:05.597Z,14.47
2022-09-02T05:30:05.600Z,14.49
2022-09-02T05:31:05.679Z,14.50
2022-09-02T05:32:05.578Z,14.49
2022-09-02T05:33:05.561Z,14.46
2022-09-02T05:34:05.567Z,14.44
2022-09-02T05:35:05.578Z,14.46
2022-09-02T05:36:05.583Z,14.50
2022-09-02T05:37:05.506Z,14.50
2022-09-02T05:38:05.528Z,14.52
2022-09-02T05:39:05.494Z,14.52
2022-09-02T05:40:05.710Z,14.56
2022-09-02T05:41:05.468Z,14.61
2022-09-02T05:42:05.478Z,14.64
2022-09-02T05:43:05.447Z,14.68
2022-09-02T05:44:05.452Z,14.74
2022-09-02T05:45:05.422Z,14.81
2022-09-02T05:46:05.475Z,14.87
2022-09-02T05:47:05.408Z,14.90
2022-09-02T05:48:05.420Z,14.95
2022-09-02T05:49:05.379Z,14.99
2022-09-02T05:50:05.381Z,15.03
2022-09-02T05:51:05.375Z,15.06
2022-09-02T05:52:05.383Z,15.11
2022-09-02T05:53:05.340Z,15.13
2022-09-02T05:54:05.360Z,15.15
2022-09-02T05:55:05.325Z,15.17
2022-09-02T05:56:05.296Z,15.20
2022-09-02T05:57:05.291Z,15.23
2022-09-02T05:58:05.294Z,15.26
2022-09-02T05:59:05.303Z,15.24
2022-09-02T06:00:05.267Z,15.27
2022-09-02T06:01:05.296Z,15.30
2022-09-02T06:02:05.396Z,15.33
2022-09-02T06:03:05.335Z,15.39
2022-09-02T06:04:05.241Z,15.42
2022-09-02T06:05:05.234Z,15.46
2022-09-02T06:06:06.857Z,15.48
2022-09-02T06:07:05.841Z,15.54
2022-09-02T06:08:05.167Z,15.56
2022-09-02T06:09:05.164Z,15.60
2022-09-02T06:10:05.135Z,15.63
2022-09-02T06:11:05.155Z,15.66
2022-09-02T06:12:05.123Z,15.72
2022-09-02T06:13:05.106Z,15.78
2022-09-02T06:14:05.107Z,15.82
2022-09-02T06:15:05.089Z,15.88
2022-09-02T06:16:05.189Z,15.93
2022-09-02T06:17:05.058Z,15.96
2022-09-02T06:18:05.045Z,15.89
2022-09-02T06:19:05.038Z,15.82
2022-09-02T06:20:05.015Z,15.79
2022-09-02T06:21:05.026Z,15.76
2022-09-02T06:22:05.029Z,15.74
2022-09-02T06:23:04.984Z,15.72
2022-09-02T06:24:04.978Z,15.76
2022-09-02T06:25:04.970Z,15.81
2022-09-02T06:26:04.950Z,15.89
2022-09-02T06:27:04.947Z,15.96
2022-09-02T06:28:07.273Z,16.03
2022-09-02T06:29:04.957Z,16.09
2022-09-02T06:30:04.898Z,16.16
2022-09-02T06:31:04.974Z,16.22
2022-09-02T06:32:04.878Z,16.26
2022-09-02T06:33:04.878Z,16.26
2022-09-02T06:34:04.877Z,16.25
2022-09-02T06:35:04.859Z,16.33
2022-09-02T06:36:04.839Z,16.37
2022-09-02T06:37:04.818Z,16.42
2022-09-02T06:38:04.827Z,16.45
2022-09-02T06:39:04.798Z,16.53
2022-09-02T06:40:04.870Z,16.62
2022-09-02T06:41:04.792Z,16.70
2022-09-02T06:42:04.771Z,16.81
2022-09-02T06:43:04.775Z,16.81
2022-09-02T06:44:07.119Z,16.85
2022-09-02T06:45:04.772Z,16.89
2022-09-02T06:46:04.740Z,16.86
2022-09-02T06:47:04.702Z,16.77
2022-09-02T06:48:05.659Z,16.75
2022-09-02T06:49:04.683Z,16.83
2022-09-02T06:50:04.682Z,16.93
2022-09-02T06:51:04.684Z,16.99
2022-09-02T06:52:04.656Z,17.03
2022-09-02T06:53:04.632Z,17.08
2022-09-02T06:54:04.659Z,17.04
2022-09-02T06:55:04.645Z,17.06
2022-09-02T06:56:04.608Z,17.10
2022-09-02T06:57:04.633Z,17.11
2022-09-02T06:58:04.641Z,17.20
2022-09-02T06:59:04.616Z,17.28
2022-09-02T07:00:04.577Z,17.35
2022-09-02T07:01:04.613Z,17.32
2022-09-02T07:02:04.717Z,17.29
2022-09-02T07:03:04.561Z,17.36
2022-09-02T07:04:04.515Z,17.47
2022-09-02T07:05:04.546Z,17.47
2022-09-02T07:06:04.499Z,17.48
2022-09-02T07:07:04.530Z,17.46
2022-09-02T07:08:04.486Z,17.43
2022-09-02T07:09:06.437Z,17.43
2022-09-02T07:10:04.449Z,17.43
2022-09-02T07:11:04.436Z,17.48
2022-09-02T07:12:06.025Z,17.57
2022-09-02T07:13:04.438Z,17.66
2022-09-02T07:14:04.439Z,17.66
2022-09-02T07:15:04.411Z,17.62
2022-09-02T07:16:04.390Z,17.63
2022-09-02T07:17:04.458Z,17.67
2022-09-02T07:18:04.396Z,17.66
2022-09-02T07:19:05.647Z,17.79
2022-09-02T07:20:04.369Z,17.79
2022-09-02T07:21:04.319Z,17.81
2022-09-02T07:22:04.320Z,17.92
2022-09-02T07:23:04.310Z,18.06
2022-09-02T07:24:04.308Z,18.13
2022-09-02T07:25:04.291Z,18.33
2022-09-02T07:26:04.296Z,18.50
2022-09-02T07:27:04.304Z,18.62
2022-09-02T07:28:04.242Z,18.54
2022-09-02T07:29:04.239Z,18.58
2022-09-02T07:30:04.221Z,18.70
2022-09-02T07:31:04.405Z,18.82
2022-09-02T07:32:04.201Z,18.91
2022-09-02T07:33:04.184Z,18.99
2022-09-02T07:34:04.174Z,19.08
2022-09-02T07:35:04.167Z,19.10
2022-09-02T07:36:04.152Z,19.20
2022-09-02T07:37:07.328Z,19.29
2022-09-02T07:38:05.269Z,19.38
2022-09-02T07:39:04.123Z,19.53
2022-09-02T07:40:04.103Z,19.68
2022-09-02T07:41:04.097Z,19.88
2022-09-02T07:42:04.116Z,19.94
2022-09-02T07:43:04.095Z,20.06
2022-09-02T07:44:04.055Z,20.15
2022-09-02T07:45:04.059Z,20.27
2022-09-02T07:46:04.102Z,20.41
2022-09-02T07:47:04.035Z,20.53
2022-09-02T07:48:04.069Z,20.53
2022-09-02T07:49:04.005Z,20.56
2022-09-02T07:50:20.986Z,20.64
2022-09-02T07:51:04.994Z,20.76
2022-09-02T07:52:03.970Z,20.81
2022-09-02T07:53:03.990Z,20.89
2022-09-02T07:54:03.989Z,20.86
2022-09-02T07:55:03.951Z,20.84
2022-09-02T07:56:03.930Z,20.77
2022-09-02T07:57:03.918Z,20.71
2022-09-02T07:58:03.908Z,20.79
2022-09-02T07:59:03.918Z,20.80
2022-09-02T08:00:03.927Z,20.96
2022-09-02T08:01:03.904Z,21.11
2022-09-02T08:02:03.926Z,21.23
2022-09-02T08:03:04.224Z,21.26
2022-09-02T08:04:06.134Z,21.32
2022-09-02T08:05:03.959Z,21.41
2022-09-02T08:06:04.151Z,21.35
2022-09-02T08:07:03.842Z,21.36
2022-09-02T08:08:03.965Z,21.19
2022-09-02T08:09:03.945Z,21.26
2022-09-02T08:10:03.840Z,21.32
2022-09-02T08:11:03.829Z,21.35
2022-09-02T08:12:03.764Z,21.48
2022-09-02T08:13:03.723Z,21.56
2022-09-02T08:14:03.726Z,21.48
2022-09-02T08:15:03.707Z,21.51
2022-09-02T08:16:03.710Z,21.54
2022-09-02T08:17:03.722Z,21.59
2022-09-02T08:18:03.685Z,21.61
2022-09-02T08:19:03.725Z,21.71
2022-09-02T08:20:03.710Z,21.74
2022-09-02T08:21:03.704Z,21.82
2022-09-02T08:22:03.713Z,21.60
2022-09-02T08:23:10.752Z,21.69
2022-09-02T08:24:04.616Z,21.81
2022-09-02T08:25:03.617Z,21.91
2022-09-02T08:26:03.576Z,21.97
2022-09-02T08:27:03.589Z,21.92
2022-09-02T08:28:03.650Z,21.74
2022-09-02T08:29:03.566Z,21.59
2022-09-02T08:30:03.561Z,21.63
2022-09-02T08:31:03.601Z,21.44
2022-09-02T08:32:03.621Z,21.39
2022-09-02T08:33:03.608Z,21.41
2022-09-02T08:34:03.489Z,21.50
2022-09-02T08:35:03.482Z,21.54
2022-09-02T08:36:03.489Z,21.69
2022-09-02T08:37:03.476Z,21.83
2022-09-02T08:38:03.443Z,22.06
2022-09-02T08:39:03.479Z,22.20
2022-09-02T08:40:03.462Z,22.35
2022-09-02T08:41:03.419Z,22.47
2022-09-02T08:42:03.489Z,22.53
2022-09-02T08:43:03.409Z,22.44
2022-09-02T08:44:03.453Z,22.47
2022-09-02T08:45:03.392Z,22.49
2022-09-02T08:46:03.376Z,22.53
2022-09-02T08:47:03.361Z,22.37
2022-09-02T08:48:03.371Z,22.31
2022-09-02T08:49:03.343Z,21.92
2022-09-02T08:50:03.389Z,22.06
2022-09-02T08:51:03.303Z,22.27
2022-09-02T08:52:03.307Z,22.43
2022-09-02T08:53:03.312Z,22.62
2022-09-02T08:54:03.295Z,22.72
2022-09-02T08:55:03.292Z,22.74
2022-09-02T08:56:03.344Z,22.41
2022-09-02T08:57:03.264Z,22.49
2022-09-02T08:58:03.374Z,22.65
2022-09-02T08:59:03.238Z,22.77
2022-09-02T09:00:03.263Z,22.92
2022-09-02T09:01:03.273Z,22.82
2022-09-02T09:02:03.368Z,22.67
2022-09-02T09:03:03.169Z,22.72
2022-09-02T09:04:03.182Z,22.83
2022-09-02T09:05:03.150Z,22.96
2022-09-02T09:06:03.127Z,23.04
2022-09-02T09:07:03.151Z,23.12
2022-09-02T09:08:03.161Z,23.04
2022-09-02T09:09:03.114Z,23.09
2022-09-02T09:10:03.105Z,23.20
2022-09-02T09:11:03.118Z,23.29
2022-09-02T09:12:03.071Z,23.32
2022-09-02T09:13:03.059Z,23.40
2022-09-02T09:14:03.129Z,23.50
2022-09-02T09:15:03.032Z,23.57
2022-09-02T09:16:03.092Z,23.67
2022-09-02T09:17:03.042Z,23.62
2022-09-02T09:18:03.012Z,23.70
2022-09-02T09:19:03.870Z,23.75
2022-09-02T09:20:03.104Z,23.85
2022-09-02T09:21:03.003Z,23.97
2022-09-02T09:22:02.964Z,24.10
2022-09-02T09:23:03.115Z,24.19
2022-09-02T09:24:02.941Z,24.16
2022-09-02T09:25:02.956Z,24.16
2022-09-02T09:26:02.932Z,24.16
2022-09-02T09:27:02.893Z,24.23
2022-09-02T09:28:02.913Z,24.19
2022-09-02T09:29:02.905Z,24.20
2022-09-02T09:30:02.894Z,24.12
2022-09-02T09:31:02.863Z,24.13
2022-09-02T09:32:02.932Z,24.13
2022-09-02T09:33:02.845Z,24.07
2022-09-02T09:34:02.824Z,24.19
2022-09-02T09:35:02.805Z,24.29
2022-09-02T09:36:02.785Z,24.27
2022-09-02T09:37:02.807Z,24.29
2022-09-02T09:38:02.769Z,24.14
2022-09-02T09:39:02.776Z,24.10
2022-09-02T09:40:02.739Z,24.41
2022-09-02T09:41:02.739Z,24.67
2022-09-02T09:42:02.727Z,24.76
2022-09-02T09:44:02.698Z,24.71
2022-09-02T09:45:02.689Z,24.67
2022-09-02T09:46:02.711Z,24.69
2022-09-02T09:47:02.698Z,24.71
2022-09-02T09:48:02.649Z,24.87
2022-09-02T09:49:02.676Z,25.13
2022-09-02T09:50:02.651Z,25.13
2022-09-02T09:51:02.673Z,24.76
2022-09-02T09:52:02.788Z,24.67
2022-09-02T09:53:02.602Z,24.79
2022-09-02T09:54:02.638Z,24.90
2022-09-02T09:55:02.621Z,25.09
2022-09-02T09:56:02.563Z,25.24
2022-09-02T09:57:02.623Z,25.39
2022-09-02T09:58:02.716Z,25.54
2022-09-02T09:59:03.373Z,25.53
2022-09-02T10:00:02.578Z,25.13
2022-09-02T10:01:02.592Z,24.76
2022-09-02T10:02:02.579Z,24.52
2022-09-02T10:03:02.483Z,24.42
2022-09-02T10:04:02.515Z,24.49
2022-09-02T10:05:02.478Z,24.41
2022-09-02T10:06:03.345Z,24.08
2022-09-02T10:07:02.460Z,24.04
2022-09-02T10:08:02.495Z,24.23
2022-09-02T10:09:02.470Z,24.10
2022-09-02T10:10:02.437Z,23.89
2022-09-02T10:11:02.427Z,24.16
2022-09-02T10:12:02.438Z,24.27
2022-09-02T10:13:02.406Z,24.54
2022-09-02T10:14:02.368Z,24.52
2022-09-02T10:15:02.509Z,24.71
2022-09-02T10:16:02.429Z,25.01
2022-09-02T10:17:02.337Z,25.35
2022-09-02T10:18:02.367Z,25.53
2022-09-02T10:19:02.342Z,25.42
2022-09-02T10:20:04.924Z,25.38
2022-09-02T10:21:15.069Z,25.42
2022-09-02T10:22:03.289Z,25.44
2022-09-02T10:23:02.271Z,24.87
2022-09-02T10:24:02.280Z,24.08
2022-09-02T10:25:02.239Z,23.87
2022-09-02T10:26:02.240Z,23.98
2022-09-02T10:27:02.220Z,23.94
2022-09-02T10:28:02.236Z,23.77
2022-09-02T10:29:04.241Z,24.08
2022-09-02T10:30:02.211Z,24.41
2022-09-02T10:31:02.245Z,24.85
2022-09-02T10:32:02.184Z,25.22
2022-09-02T10:33:02.165Z,25.24
2022-09-02T10:34:02.774Z,25.22
2022-09-02T10:35:02.145Z,25.20
2022-09-02T10:36:02.145Z,25.12
2022-09-02T10:37:02.124Z,24.73
2022-09-02T10:38:02.134Z,24.52
2022-09-02T10:39:02.085Z,24.63
2022-09-02T10:40:02.149Z,24.50
2022-09-02T10:41:02.078Z,24.24
2022-09-02T10:42:02.085Z,23.98
2022-09-02T10:43:02.055Z,24.19
2022-09-02T10:44:02.048Z,24.26
2022-09-02T10:45:02.041Z,24.14
2022-09-02T10:46:02.046Z,24.10
2022-09-02T10:47:02.053Z,24.17
2022-09-02T10:48:01.988Z,24.35
2022-09-02T10:49:01.994Z,24.47
2022-09-02T10:50:01.993Z,24.67
2022-09-02T10:51:02.038Z,24.71
2022-09-02T10:52:02.016Z,24.87
2022-09-02T10:53:03.655Z,25.02
2022-09-02T10:54:01.950Z,25.35
2022-09-02T10:55:01.919Z,25.68
2022-09-02T10:56:01.909Z,25.68
2022-09-02T10:57:01.902Z,25.79
2022-09-02T10:58:01.941Z,25.94
2022-09-02T10:59:01.865Z,26.04
2022-09-02T11:00:01.867Z,26.24
2022-09-02T11:01:01.907Z,26.49
2022-09-02T11:02:01.832Z,26.62
2022-09-02T11:03:01.955Z,26.40
2022-09-02T11:04:01.909Z,25.72
2022-09-02T11:05:01.855Z,25.67
2022-09-02T11:06:01.816Z,25.71
2022-09-02T11:07:03.283Z,25.35
2022-09-02T11:08:01.784Z,25.20
2022-09-02T11:09:01.808Z,25.31
2022-09-02T11:10:01.805Z,25.52
2022-09-02T11:11:01.758Z,25.72
2022-09-02T11:12:01.745Z,25.59
2022-09-02T11:13:01.719Z,25.74
2022-09-02T11:14:01.834Z,25.71
2022-09-02T11:15:01.736Z,25.68
2022-09-02T11:16:01.742Z,25.61
2022-09-02T11:17:01.707Z,25.71
2022-09-02T11:18:01.745Z,25.62
2022-09-02T11:19:01.656Z,25.47
2022-09-02T11:20:01.700Z,25.46
2022-09-02T11:21:01.657Z,25.35
2022-09-02T11:22:01.659Z,25.47
2022-09-02T11:23:01.628Z,25.46
2022-09-02T11:24:01.598Z,25.19
2022-09-02T11:25:01.611Z,24.71
2022-09-02T11:26:01.619Z,24.73
2022-09-02T11:27:01.570Z,24.79
2022-09-02T11:28:01.553Z,24.73
2022-09-02T11:29:01.540Z,24.53
2022-09-02T11:30:01.552Z,24.49
2022-09-02T11:31:01.581Z,24.56
2022-09-02T11:32:01.538Z,24.61
2022-09-02T11:33:01.502Z,24.61
2022-09-02T11:35:01.504Z,25.05
2022-09-02T11:36:01.482Z,25.13
2022-09-02T11:37:01.493Z,25.38
2022-09-02T11:38:01.494Z,25.52
2022-09-02T11:39:01.445Z,25.61
2022-09-02T11:40:23.665Z,25.49
2022-09-02T11:41:34.950Z,25.57
2022-09-02T11:42:02.464Z,25.52
2022-09-02T11:43:01.404Z,25.57
2022-09-02T11:44:01.400Z,25.62
2022-09-02T11:45:01.365Z,25.62
2022-09-02T11:46:01.466Z,25.67
2022-09-02T11:47:01.395Z,25.57
2022-09-02T11:48:01.360Z,25.65
2022-09-02T11:49:01.358Z,25.74
2022-09-02T11:50:01.324Z,25.74
2022-09-02T11:51:01.311Z,25.77
2022-09-02T11:52:02.175Z,25.77
2022-09-02T11:53:01.325Z,25.89
2022-09-02T11:54:01.291Z,25.84
2022-09-02T11:55:02.810Z,25.93
2022-09-02T11:56:01.268Z,25.97
2022-09-02T11:57:01.259Z,25.90
2022-09-02T11:58:01.258Z,25.75
2022-09-02T11:59:01.232Z,25.57
2022-09-02T12:00:01.250Z,25.50
2022-09-02T12:01:01.219Z,25.24
2022-09-02T12:02:01.181Z,25.19
2022-09-02T12:03:07.875Z,25.25
2022-09-02T12:05:02.728Z,25.46
2022-09-02T12:06:01.253Z,25.62
2022-09-02T12:07:04.482Z,25.89
2022-09-02T12:08:02.113Z,26.05
2022-09-02T12:09:01.133Z,26.15
2022-09-02T12:10:01.144Z,26.09
2022-09-02T12:11:01.115Z,26.20
2022-09-02T12:12:01.123Z,26.27
2022-09-02T12:13:01.118Z,26.35
2022-09-02T12:14:04.062Z,26.35
2022-09-02T12:15:02.060Z,26.55
2022-09-02T12:16:01.088Z,26.65
2022-09-02T12:17:01.090Z,26.58
2022-09-02T12:18:00.996Z,26.46
2022-09-02T12:19:01.073Z,26.25
2022-09-02T12:20:01.004Z,26.12
2022-09-02T12:21:01.025Z,25.87
2022-09-02T12:22:01.030Z,25.62
2022-09-02T12:23:00.965Z,25.59
2022-09-02T12:24:00.946Z,25.54
2022-09-02T12:25:00.929Z,25.53
2022-09-02T12:26:00.934Z,25.56
2022-09-02T12:27:00.918Z,25.64
2022-09-02T12:28:00.928Z,25.83
2022-09-02T12:29:00.878Z,26.04
2022-09-02T12:30:00.869Z,26.18
2022-09-02T12:31:00.901Z,26.25
2022-09-02T12:32:00.853Z,26.31
2022-09-02T12:33:00.838Z,26.28
2022-09-02T12:34:00.881Z,26.04
2022-09-02T12:35:00.823Z,26.20
2022-09-02T12:36:00.801Z,26.24
2022-09-02T12:37:00.814Z,26.28
2022-09-02T12:38:00.811Z,26.29
2022-09-02T12:39:00.771Z,26.04
2022-09-02T12:40:00.794Z,26.21
2022-09-02T12:41:00.802Z,26.25
2022-09-02T12:42:00.769Z,26.28
2022-09-02T12:43:00.743Z,26.24
2022-09-02T12:44:00.717Z,25.99
2022-09-02T12:45:00.736Z,25.94
2022-09-02T12:46:00.693Z,25.84
2022-09-02T12:47:00.770Z,25.46
2022-09-02T12:48:00.677Z,25.22
2022-09-02T12:49:00.675Z,25.28
2022-09-02T12:50:00.638Z,25.47
2022-09-02T12:51:00.667Z,25.65
2022-09-02T12:52:00.626Z,25.54
2022-09-02T12:53:00.616Z,25.32
2022-09-02T12:54:00.605Z,25.56
2022-09-02T12:55:00.595Z,25.80